^^
Datos históricos de la estación: Murcia-Puente Tocinos
Diario Informe para Abril 6, 2019 Unidades:  Métrico    Inglés   Ambas
Diario Semanal Mensual Anual Configurable
  Máximo: Mínimo: Media:
Temperatura: 17.7 °C 8.9 °C 12.8 °C
Punto de rocio: 7.9 °C 1.2 °C 4.2 °C
Humedad: 75% 34% 57%
Velocidad viento: 23.3km/h 0.0km/h 6.8km/h
Racha viento: 44.4km/h - -
Viento- - SSW
Presión: 1006.6 hPa 1002.4 hPa -
Precipitación: 3.0 mm    
Historical Graphs
 
 
Tabla de datos para Abril 6, 2019
Hora Temperatura Punto de rocio Presión Viento Velocidad viento Racha viento Humedad Intensidad lluvia(por hora) Nubes
00:00 10.6 °C 4.5 °C 1002.5 hPa WNW 8.0 km/h 9.7 km/h 66% 0.0 mm RA
00:05 10.6 °C 4.3 °C 1002.6 hPa NW 7.6 km/h 7.4 km/h 65% 0.0 mm RA
00:10 10.6 °C 4.3 °C 1002.6 hPa WNW 5.8 km/h 5.6 km/h 65% 0.0 mm CLR
00:15 10.5 °C 4.2 °C 1002.6 hPa WNW 5.8 km/h 8.4 km/h 65% 0.0 mm CLR
00:20 10.4 °C 4.3 °C 1002.5 hPa NW 4.7 km/h 7.4 km/h 66% 0.0 mm CLR
00:25 10.4 °C 4.3 °C 1002.5 hPa NW 4.7 km/h 5.6 km/h 66% 0.0 mm CLR
00:30 10.2 °C 4.3 °C 1002.5 hPa WNW 4.7 km/h 7.4 km/h 67% 0.0 mm CLR
00:35 10.1 °C 4.2 °C 1002.6 hPa WSW 4.7 km/h 3.9 km/h 67% 0.0 mm CLR
00:40 10.1 °C 4.2 °C 1002.6 hPa SW 3.9 km/h 5.6 km/h 67% 0.0 mm CLR
00:45 10.1 °C 4.1 °C 1002.6 hPa SSE 3.9 km/h 7.4 km/h 66% 0.0 mm CLR
00:50 10.2 °C 4.8 °C 1002.8 hPa ESE 5.8 km/h 13.0 km/h 69% 0.0 mm CLR
00:55 9.9 °C 4.7 °C 1002.8 hPa SSE 5.8 km/h 11.1 km/h 70% 0.0 mm CLR
01:00 9.9 °C 4.7 °C 1002.8 hPa SE 9.7 km/h 11.3 km/h 70% 0.0 mm CLR
01:05 9.9 °C 4.7 °C 1002.6 hPa SSE 8.7 km/h 13.0 km/h 70% 0.0 mm CLR
01:10 9.9 °C 4.7 °C 1002.6 hPa SSW 8.4 km/h 11.1 km/h 70% 0.0 mm CLR
01:15 9.9 °C 4.9 °C 1002.6 hPa SW 8.4 km/h 9.3 km/h 71% 0.0 mm CLR
01:20 10.0 °C 4.8 °C 1002.8 hPa WSW 6.9 km/h 7.4 km/h 70% 0.0 mm CLR
01:25 10.1 °C 4.7 °C 1002.8 hPa WSW 6.9 km/h 7.4 km/h 69% 0.0 mm CLR
01:30 10.2 °C 4.8 °C 1002.8 hPa WSW 5.0 km/h 3.7 km/h 69% 0.0 mm CLR
01:35 10.2 °C 4.6 °C 1002.8 hPa WSW 5.0 km/h 5.6 km/h 68% 0.0 mm CLR
01:40 10.3 °C 4.7 °C 1002.8 hPa WSW 2.3 km/h   68% 0.0 mm CLR
01:45 10.2 °C 4.8 °C 1002.8 hPa ESE 2.3 km/h 9.3 km/h 69% 0.0 mm CLR
01:50 9.8 °C 4.8 °C 1003.0 hPa ESE 3.9 km/h 5.6 km/h 71% 0.0 mm CLR
01:55 9.6 °C 4.8 °C 1003.0 hPa NE 3.9 km/h 6.4 km/h 72% 0.0 mm CLR
02:00 9.5 °C 4.9 °C 1003.0 hPa ENE 3.2 km/h 8.0 km/h 73% 0.0 mm CLR
02:05 9.4 °C 4.8 °C 1002.8 hPa NW 3.2 km/h 6.9 km/h 73% 0.0 mm CLR
02:10 9.4 °C 4.8 °C 1002.8 hPa NNW 2.9 km/h 7.4 km/h 73% 0.0 mm CLR
02:15 9.4 °C 4.8 °C 1002.8 hPa NNW 2.9 km/h 7.4 km/h 73% 0.0 mm CLR
02:20 9.3 °C 4.7 °C 1002.7 hPa NW 4.7 km/h 7.4 km/h 73% 0.0 mm CLR
02:25 9.3 °C 4.7 °C 1002.7 hPa NW 4.7 km/h 5.8 km/h 73% 0.0 mm CLR
02:30 9.3 °C 4.9 °C 1002.7 hPa NNW 3.2 km/h 7.4 km/h 74% 0.0 mm CLR
02:35 9.2 °C 5.0 °C 1002.6 hPa NNW 3.2 km/h 8.4 km/h 75% 0.0 mm CLR
02:40 9.1 °C 4.9 °C 1002.6 hPa NNW 4.7 km/h 7.4 km/h 75% 0.0 mm CLR
02:45 9.1 °C 4.9 °C 1002.6 hPa NNW 4.7 km/h 7.4 km/h 75% 0.0 mm CLR
02:50 9.1 °C 4.9 °C 1002.6 hPa NW 4.7 km/h 7.4 km/h 75% 0.0 mm CLR
02:55 9.1 °C 4.7 °C 1002.6 hPa NW 4.7 km/h 7.4 km/h 74% 0.0 mm CLR
03:00 9.2 °C 4.8 °C 1002.6 hPa NW 4.8 km/h 8.0 km/h 74% 0.0 mm CLR
03:05 9.2 °C 4.6 °C 1002.7 hPa WNW 5.8 km/h 5.6 km/h 73% 0.0 mm CLR
03:10 9.3 °C 4.5 °C 1002.7 hPa WNW 3.2 km/h   72% 0.0 mm CLR
03:15 9.3 °C 4.5 °C 1002.7 hPa WNW 3.2 km/h 3.7 km/h 72% 0.0 mm CLR
03:20 9.4 °C 4.8 °C 1002.6 hPa WNW 2.3 km/h 7.4 km/h 73% 0.0 mm CLR
03:25 9.4 °C 5.0 °C 1002.6 hPa SE 2.3 km/h 5.6 km/h 74% 0.0 mm CLR
03:30 9.4 °C 4.8 °C 1002.6 hPa SE 3.2 km/h   73% 0.0 mm CLR
03:35 9.4 °C 4.8 °C 1002.6 hPa SE 3.2 km/h   73% 0.0 mm CLR
03:40 9.4 °C 4.8 °C 1002.6 hPa Calm   5.6 km/h 73% 0.0 mm CLR
03:45 9.4 °C 4.6 °C 1002.6 hPa Calm   5.6 km/h 72% 0.0 mm CLR
03:50 9.4 °C 4.4 °C 1002.5 hPa SSW 2.9 km/h 7.4 km/h 71% 0.0 mm CLR
03:55 9.7 °C 4.3 °C 1002.5 hPa SSW 2.9 km/h 7.6 km/h 69% 0.0 mm CLR
04:00 9.8 °C 4.2 °C 1002.5 hPa South 4.8 km/h 9.7 km/h 68% 0.0 mm CLR
04:05 9.9 °C 3.8 °C 1002.4 hPa SW 5.0 km/h 7.4 km/h 66% 0.0 mm CLR
04:10 10.0 °C 3.7 °C 1002.4 hPa West 4.7 km/h 7.4 km/h 65% 0.0 mm CLR
04:15 10.1 °C 3.6 °C 1002.4 hPa WSW 4.7 km/h 7.4 km/h 64% 0.0 mm CLR
04:20 10.1 °C 3.6 °C 1002.4 hPa WSW 3.9 km/h 9.3 km/h 64% 0.0 mm CLR
04:25 10.2 °C 3.7 °C 1002.4 hPa West 3.9 km/h 7.4 km/h 64% 0.0 mm CLR
04:30 10.2 °C 3.9 °C 1002.4 hPa WNW 3.2 km/h 5.6 km/h 65% 0.0 mm CLR
04:35 10.2 °C 3.7 °C 1002.6 hPa West 3.2 km/h 5.6 km/h 64% 0.0 mm CLR
04:40 10.1 °C 4.2 °C 1002.6 hPa West 2.3 km/h 5.6 km/h 67% 0.0 mm CLR
04:45 9.7 °C 4.1 °C 1002.6 hPa West 2.3 km/h 5.6 km/h 68% 0.0 mm CLR
04:50 9.4 °C 4.2 °C 1002.5 hPa West 3.2 km/h 3.7 km/h 70% 0.0 mm CLR
04:55 9.2 °C 4.2 °C 1002.5 hPa West 3.2 km/h   71% 0.0 mm CLR
05:00 9.2 °C 4.0 °C 1002.5 hPa Calm   8.0 km/h 70% 0.0 mm CLR
05:05 9.1 °C 3.7 °C 1002.4 hPa Calm   5.8 km/h 69% 0.0 mm CLR
05:10 9.0 °C 3.6 °C 1002.4 hPa SSE 3.9 km/h 7.4 km/h 69% 0.0 mm CLR
05:15 9.0 °C 3.8 °C 1002.4 hPa SE 3.9 km/h 9.3 km/h 70% 0.0 mm CLR
05:20 8.9 °C 3.7 °C 1002.5 hPa SE 5.0 km/h 7.4 km/h 70% 0.0 mm CLR
05:25 9.0 °C 3.8 °C 1002.5 hPa SE 5.0 km/h 7.4 km/h 70% 0.0 mm CLR
05:30 9.0 °C 3.8 °C 1002.5 hPa South 5.0 km/h 10.3 km/h 70% 0.0 mm CLR
05:35 9.1 °C 3.7 °C 1002.6 hPa SSW 5.0 km/h 13.0 km/h 69% 0.0 mm CLR
05:40 9.1 °C 3.7 °C 1002.6 hPa SSW 9.5 km/h 14.8 km/h 69% 0.0 mm CLR
05:45 9.2 °C 3.8 °C 1002.6 hPa SSW 9.5 km/h 11.1 km/h 69% 0.0 mm CLR
05:50 9.3 °C 3.5 °C 1002.7 hPa SW 8.7 km/h 14.8 km/h 67% 0.0 mm CLR
05:55 9.7 °C 3.4 °C 1002.7 hPa SSE 8.7 km/h 11.1 km/h 65% 0.0 mm CLR
06:00 9.8 °C 3.5 °C 1002.7 hPa South 8.0 km/h 11.3 km/h 65% 0.0 mm CLR
06:05 9.7 °C 3.9 °C 1002.7 hPa SSE 8.4 km/h 13.0 km/h 67% 0.0 mm CLR
06:10 9.4 °C 3.8 °C 1002.7 hPa SSE 7.6 km/h 13.0 km/h 68% 0.0 mm CLR
06:15 9.2 °C 3.6 °C 1002.7 hPa South 7.6 km/h 14.8 km/h 68% 0.0 mm CLR
06:20 9.1 °C 3.5 °C 1002.9 hPa South 9.5 km/h 14.8 km/h 68% 0.0 mm CLR
06:25 9.1 °C 3.5 °C 1002.9 hPa SSW 9.5 km/h 9.3 km/h 68% 0.0 mm CLR
06:30 9.1 °C 3.3 °C 1002.9 hPa SW 8.4 km/h 8.7 km/h 67% 0.0 mm CLR
06:35 9.1 °C 3.5 °C 1003.0 hPa SW 8.4 km/h   68% 0.0 mm CLR
06:40 9.1 °C 3.5 °C 1003.0 hPa SW 3.2 km/h   68% 0.0 mm CLR
06:45 9.1 °C 3.5 °C 1003.0 hPa SW 3.2 km/h   68% 0.0 mm CLR
06:50 9.1 °C 3.3 °C 1003.3 hPa Calm   7.4 km/h 67% 0.0 mm CLR
06:55 9.1 °C 3.3 °C 1003.3 hPa Calm   5.6 km/h 67% 0.0 mm CLR
07:00 9.2 °C 3.4 °C 1003.3 hPa SW 3.2 km/h 8.0 km/h 67% 0.0 mm CLR
07:05 9.2 °C 3.4 °C 1003.5 hPa West 3.9 km/h 9.3 km/h 67% 0.0 mm CLR
07:10 9.2 °C 3.4 °C 1003.5 hPa WSW 5.8 km/h 7.4 km/h 67% 0.0 mm CLR
07:15 9.1 °C 3.5 °C 1003.5 hPa WSW 5.8 km/h 9.3 km/h 68% 0.0 mm CLR
07:20 9.1 °C 3.3 °C 1003.7 hPa WSW 5.8 km/h 11.1 km/h 67% 0.0 mm CLR
07:25 9.2 °C 3.4 °C 1003.7 hPa WSW 5.8 km/h 7.4 km/h 67% 0.0 mm CLR
07:30 9.2 °C 3.2 °C 1003.7 hPa SSW 5.8 km/h 11.1 km/h 66% 0.0 mm CLR
07:35 9.4 °C 3.2 °C 1003.9 hPa SSW 5.8 km/h 13.0 km/h 65% 0.0 mm CLR
07:40 9.6 °C 3.1 °C 1003.9 hPa WSW 8.4 km/h 9.5 km/h 64% 0.0 mm CLR
07:45 9.7 °C 3.2 °C 1003.9 hPa West 8.4 km/h 7.4 km/h 64% 0.0 mm CLR
07:50 9.6 °C 3.1 °C 1003.9 hPa SW 5.0 km/h 7.4 km/h 64% 0.0 mm CLR
07:55 9.6 °C 3.3 °C 1003.9 hPa SW 5.0 km/h 3.7 km/h 65% 0.0 mm CLR
08:00 9.4 °C 3.4 °C 1003.9 hPa West 3.2 km/h 8.0 km/h 66% 0.0 mm CLR
08:05 9.1 °C 3.5 °C 1004.3 hPa NW 4.7 km/h   68% 0.0 mm CLR
08:10 9.0 °C 3.6 °C 1004.3 hPa ESE 2.9 km/h 7.4 km/h 69% 0.0 mm CLR
08:15 9.1 °C 3.7 °C 1004.3 hPa ESE 2.9 km/h 6.9 km/h 69% 0.0 mm CLR
08:20 9.1 °C 3.5 °C 1004.4 hPa SSW 3.2 km/h 7.4 km/h 68% 0.0 mm CLR
08:25 9.0 °C 3.4 °C 1004.4 hPa SSE 3.2 km/h 9.3 km/h 68% 0.0 mm CLR
08:30 9.1 °C 3.5 °C 1004.4 hPa SSE 6.4 km/h 7.4 km/h 68% 0.0 mm CLR
08:35 9.2 °C 3.6 °C 1004.5 hPa SSE 6.4 km/h 7.6 km/h 68% 0.0 mm CLR
08:40 9.3 °C 3.5 °C 1004.5 hPa SSE 5.8 km/h 11.1 km/h 67% 0.0 mm CLR
08:45 9.4 °C 3.6 °C 1004.5 hPa SSE 5.8 km/h 7.4 km/h 67% 0.0 mm CLR
08:50 9.6 °C 3.6 °C 1004.7 hPa South 5.8 km/h 7.4 km/h 66% 0.0 mm CLR
08:55 9.8 °C 3.5 °C 1004.7 hPa SSE 5.8 km/h 7.6 km/h 65% 0.0 mm CLR
09:00 10.1 °C 3.8 °C 1004.7 hPa SSE 4.8 km/h 8.0 km/h 65% 0.0 mm CLR
09:05 10.3 °C 4.2 °C 1004.8 hPa South 5.8 km/h 5.6 km/h 66% 0.0 mm CLR
09:10 10.6 °C 4.1 °C 1004.8 hPa SSE 3.9 km/h 5.6 km/h 64% 0.0 mm CLR
09:15 10.8 °C 3.8 °C 1004.8 hPa SSE 3.9 km/h 3.7 km/h 62% 0.0 mm CLR
09:20 11.2 °C 4.2 °C 1005.0 hPa SSE 2.9 km/h   62% 0.0 mm CLR
09:25 11.6 °C 3.8 °C 1005.0 hPa SW 2.9 km/h 3.7 km/h 59% 0.0 mm CLR
09:30 11.7 °C 3.4 °C 1005.0 hPa SW 2.9 km/h 3.7 km/h 57% 0.0 mm CLR
09:35 11.8 °C 3.1 °C 1005.1 hPa SSW 2.9 km/h 7.4 km/h 55% 0.0 mm CLR
09:40 12.0 °C 2.9 °C 1005.1 hPa SSW 3.2 km/h 9.3 km/h 54% 0.0 mm CLR
09:45 12.1 °C 2.6 °C 1005.1 hPa SW 3.2 km/h 13.0 km/h 52% 0.0 mm CLR
09:50 12.2 °C 2.6 °C 1005.0 hPa WNW 6.4 km/h 7.4 km/h 52% 0.0 mm CLR
09:55 12.3 °C 2.7 °C 1005.0 hPa NW 6.4 km/h 3.7 km/h 52% 0.0 mm CLR
10:00 12.7 °C 2.8 °C 1005.0 hPa WNW 3.2 km/h 9.7 km/h 51% 0.0 mm CLR
10:05 12.9 °C 2.4 °C 1005.1 hPa South 3.2 km/h   49% 0.0 mm CLR
10:10 13.2 °C 2.4 °C 1005.1 hPa SSE 2.9 km/h 3.7 km/h 48% 0.0 mm CLR
10:15 13.6 °C 3.9 °C 1005.1 hPa East 2.9 km/h 3.7 km/h 52% 0.0 mm CLR
10:20 13.8 °C 4.1 °C 1005.1 hPa North 2.9 km/h 5.6 km/h 52% 0.0 mm CLR
10:25 14.1 °C 4.1 °C 1005.1 hPa NE 2.9 km/h 7.4 km/h 51% 0.0 mm CLR
10:30 14.0 °C 3.4 °C 1005.1 hPa NE 3.9 km/h 9.3 km/h 49% 0.0 mm CLR
10:35 13.9 °C 3.6 °C 1005.1 hPa NNE 3.9 km/h 5.6 km/h 50% 0.0 mm CLR
10:40 14.0 °C 4.0 °C 1005.1 hPa ESE 3.9 km/h 5.6 km/h 51% 0.0 mm CLR
10:45 14.2 °C 3.3 °C 1005.1 hPa SSE 3.9 km/h 7.4 km/h 48% 0.0 mm CLR
10:50 14.3 °C 3.1 °C 1005.3 hPa SSE 3.9 km/h 9.3 km/h 47% 0.0 mm CLR
10:55 14.3 °C 2.8 °C 1005.3 hPa SE 3.9 km/h 11.1 km/h 46% 0.0 mm CLR
11:00 14.3 °C 2.5 °C 1005.3 hPa SSE 8.0 km/h 11.3 km/h 45% 0.0 mm CLR
11:05 14.4 °C 2.3 °C 1005.3 hPa SSE 6.4 km/h 13.0 km/h 44% 0.0 mm CLR
11:10 14.6 °C 2.4 °C 1005.3 hPa South 5.0 km/h 13.7 km/h 44% 0.0 mm CLR
11:15 14.7 °C 2.6 °C 1005.3 hPa East 5.0 km/h 5.6 km/h 44% 0.0 mm CLR
11:20 15.0 °C 2.5 °C 1005.3 hPa SE 5.0 km/h 13.0 km/h 43% 0.0 mm CLR
11:25 15.0 °C 2.5 °C 1005.3 hPa ESE 5.0 km/h 11.9 km/h 43% 0.0 mm CLR
11:30 15.2 °C 2.3 °C 1005.3 hPa SSE 8.4 km/h 11.1 km/h 42% 0.0 mm CLR
11:35 15.2 °C 2.3 °C 1005.2 hPa SSW 8.4 km/h 5.0 km/h 42% 0.0 mm CLR
11:40 15.3 °C 2.4 °C 1005.2 hPa NE 5.8 km/h 9.3 km/h 42% 0.0 mm CLR
11:45 15.4 °C 2.2 °C 1005.2 hPa West 5.8 km/h 9.3 km/h 41% 0.0 mm CLR
11:50 15.6 °C 2.4 °C 1005.1 hPa East 5.0 km/h 14.8 km/h 41% 0.0 mm CLR
11:55 15.7 °C 2.4 °C 1005.1 hPa South 5.0 km/h 10.0 km/h 41% 0.0 mm CLR
12:00 15.9 °C 2.6 °C 1005.1 hPa SE 8.0 km/h 11.3 km/h 41% 0.0 mm CLR
12:05 16.0 °C 2.4 °C 1005.0 hPa West 8.4 km/h 14.8 km/h 40% 0.0 mm CLR
12:10 16.1 °C 2.5 °C 1005.0 hPa West 6.9 km/h 3.9 km/h 40% 0.0 mm CLR
12:15 15.9 °C 2.3 °C 1005.0 hPa SW 6.9 km/h 14.8 km/h 40% 0.0 mm CLR
12:20 16.1 °C 2.1 °C 1004.9 hPa SSW 8.4 km/h 14.8 km/h 39% 0.0 mm CLR
12:25 16.3 °C 1.9 °C 1004.9 hPa NW 8.4 km/h 6.4 km/h 38% 0.0 mm CLR
12:30 16.3 °C 1.6 °C 1004.9 hPa NE 8.4 km/h 7.4 km/h 37% 0.0 mm CLR
12:35 16.4 °C 1.7 °C 1004.6 hPa SSE 8.4 km/h 9.3 km/h 37% 0.0 mm CLR
12:40 16.6 °C 2.2 °C 1004.6 hPa SSE 6.4 km/h 9.3 km/h 38% 0.0 mm CLR
12:45 16.7 °C 1.9 °C 1004.6 hPa ESE 6.4 km/h 7.4 km/h 37% 0.0 mm CLR
12:50 16.8 °C 2.0 °C 1004.3 hPa SSE 6.4 km/h 18.5 km/h 37% 0.0 mm CLR
12:55 16.9 °C 2.1 °C 1004.3 hPa SW 6.4 km/h 25.9 km/h 37% 0.0 mm CLR
13:00 17.1 °C 2.3 °C 1004.3 hPa WSW 12.9 km/h 19.3 km/h 37% 0.0 mm CLR
13:05 17.3 °C 2.1 °C 1004.3 hPa West 12.2 km/h 11.1 km/h 36% 0.0 mm CLR
13:10 17.4 °C 2.2 °C 1004.3 hPa South 5.0 km/h 13.0 km/h 36% 0.0 mm CLR
13:15 17.5 °C 2.2 °C 1004.3 hPa SW 5.0 km/h 13.0 km/h 36% 0.0 mm CLR
13:20 17.4 °C 1.8 °C 1004.2 hPa SSW 7.6 km/h 14.8 km/h 35% 0.0 mm CLR
13:25 17.2 °C 2.0 °C 1004.2 hPa SSW 7.6 km/h 16.7 km/h 36% 0.0 mm CLR
13:30 17.2 °C 1.2 °C 1004.2 hPa South 10.3 km/h 16.7 km/h 34% 0.0 mm CLR
13:35 17.2 °C 1.6 °C 1004.0 hPa SW 10.3 km/h 8.7 km/h 35% 0.0 mm CLR
13:40 17.2 °C 1.6 °C 1004.0 hPa SSE 6.4 km/h 7.4 km/h 35% 0.0 mm CLR
13:45 17.4 °C 1.8 °C 1004.0 hPa SW 6.4 km/h 16.7 km/h 35% 0.0 mm CLR
13:50 17.5 °C 1.8 °C 1003.9 hPa South 7.6 km/h 9.3 km/h 35% 0.0 mm CLR
13:55 17.6 °C 1.6 °C 1003.9 hPa SSW 7.6 km/h 20.9 km/h 34% 0.0 mm CLR
14:00 17.7 °C 1.6 °C 1003.9 hPa SSW 9.7 km/h 20.9 km/h 34% 0.0 mm CLR
14:05 17.6 °C 1.6 °C 1003.5 hPa SSW 9.5 km/h 14.8 km/h 34% 0.0 mm CLR
14:10 17.7 °C 1.6 °C 1003.5 hPa SSE 13.0 km/h 16.7 km/h 34% 0.0 mm CLR
14:15 17.6 °C 3.1 °C 1003.5 hPa SSE 13.0 km/h 13.0 km/h 38% 0.0 mm CLR
14:20 17.4 °C 3.3 °C 1003.4 hPa SSE 10.3 km/h 9.3 km/h 39% 0.0 mm CLR
14:25 17.1 °C 3.4 °C 1003.4 hPa South 10.3 km/h 11.1 km/h 40% 0.0 mm CLR
14:30 17.1 °C 2.7 °C 1003.4 hPa SW 9.5 km/h 35.2 km/h 38% 0.0 mm CLR
14:35 16.3 °C 4.3 °C 1003.8 hPa WNW 9.5 km/h 14.0 km/h 45% 0.0 mm CLR
14:40 15.8 °C 4.2 °C 1003.8 hPa NW 14.0 km/h 25.9 km/h 46% 0.0 mm CLR
14:45 14.9 °C 4.6 °C 1003.8 hPa WNW 14.0 km/h 40.7 km/h 50% 0.5 mm RA
14:50 13.7 °C 6.1 °C 1004.9 hPa WSW 23.3 km/h 42.6 km/h 60% 1.0 mm RA
14:55 13.0 °C 6.8 °C 1004.9 hPa SW 23.3 km/h 16.7 km/h 66% 1.3 mm RA
15:00 12.8 °C 7.1 °C 1004.9 hPa West 14.5 km/h 20.9 km/h 68% 0.0 mm RA
15:05 12.9 °C 6.5 °C 1004.6 hPa West 15.6 km/h 14.8 km/h 65% 1.3 mm
15:10 13.2 °C 7.4 °C 1004.6 hPa WNW 8.7 km/h 7.4 km/h 68% 1.3 mm CLR
15:15 13.5 °C 7.3 °C 1004.6 hPa WSW 8.7 km/h 5.6 km/h 66% 1.3 mm CLR
15:20 14.1 °C 7.4 °C 1004.2 hPa West 3.9 km/h 9.3 km/h 64% 1.3 mm CLR
15:25 14.7 °C 5.2 °C 1004.2 hPa SW 3.9 km/h 10.3 km/h 53% 1.3 mm CLR
15:30 15.2 °C 5.1 °C 1004.2 hPa SSW 6.9 km/h 14.8 km/h 51% 1.3 mm CLR
15:35 15.7 °C 7.2 °C 1004.0 hPa SSE 6.9 km/h 22.2 km/h 57% 1.3 mm CLR
15:40 15.5 °C 6.5 °C 1004.0 hPa SSW 10.3 km/h 11.1 km/h 55% 1.3 mm CLR
15:45 15.6 °C 6.6 °C 1004.0 hPa WSW 10.3 km/h 18.5 km/h 55% 0.8 mm CLR
15:50 15.6 °C 5.8 °C 1004.0 hPa SSW 10.0 km/h 11.1 km/h 52% 0.3 mm CLR
15:55 15.8 °C 6.2 °C 1004.0 hPa SSE 10.0 km/h 10.3 km/h 53% 0.0 mm CLR
16:00 15.8 °C 5.4 °C 1004.0 hPa South 8.0 km/h 11.3 km/h 50% 0.0 mm CLR
16:05 16.0 °C 5.6 °C 1003.8 hPa South 7.6 km/h 13.0 km/h 50% 0.0 mm CLR
16:10 16.3 °C 4.3 °C 1003.8 hPa SSW 9.5 km/h 16.7 km/h 45% 0.0 mm CLR
16:15 16.4 °C 4.7 °C 1003.8 hPa SSW 9.5 km/h 16.7 km/h 46% 0.0 mm CLR
16:20 16.6 °C 4.6 °C 1003.5 hPa South 11.9 km/h 20.4 km/h 45% 0.0 mm CLR
16:25 16.6 °C 4.3 °C 1003.5 hPa SSW 11.9 km/h 16.7 km/h 44% 0.0 mm CLR
16:30 16.6 °C 4.3 °C 1003.5 hPa SSW 11.9 km/h 14.8 km/h 44% 0.0 mm CLR
16:35 16.7 °C 4.4 °C 1003.3 hPa South 11.9 km/h 14.8 km/h 44% 0.3 mm RA
16:40 16.6 °C 4.6 °C 1003.3 hPa South 10.0 km/h 14.8 km/h 45% 0.5 mm RA
16:45 16.3 °C 4.9 °C 1003.3 hPa SE 10.0 km/h 11.1 km/h 47% 0.5 mm RA
16:50 16.3 °C 4.7 °C 1002.9 hPa South 8.4 km/h 13.0 km/h 46% 0.5 mm CLR
16:55 16.3 °C 4.9 °C 1002.9 hPa SSW 8.4 km/h 14.8 km/h 47% 0.5 mm CLR
17:00 16.3 °C 5.3 °C 1002.9 hPa South 8.0 km/h 12.9 km/h 48% 0.0 mm
17:05 16.6 °C 5.6 °C 1002.7 hPa SSE 8.4 km/h 13.0 km/h 48% 0.5 mm CLR
17:10 16.6 °C 5.6 °C 1002.7 hPa South 11.1 km/h 20.4 km/h 48% 0.8 mm RA
17:15 16.3 °C 5.6 °C 1002.7 hPa SSW 11.1 km/h 29.8 km/h 49% 0.8 mm RA
17:20 15.8 °C 4.8 °C 1003.2 hPa SSE 14.8 km/h 22.2 km/h 48% 1.0 mm RA
17:25 15.5 °C 5.7 °C 1003.2 hPa WNW 14.8 km/h 14.8 km/h 52% 1.3 mm RA
17:30 15.3 °C 5.2 °C 1003.2 hPa NW 12.2 km/h 44.4 km/h 51% 1.5 mm RA
17:35 14.7 °C 6.0 °C 1003.8 hPa North 12.2 km/h 16.7 km/h 56% 1.5 mm RA
17:40 14.5 °C 6.6 °C 1003.8 hPa North 18.0 km/h 7.4 km/h 59% 1.3 mm RA
17:45 14.4 °C 6.2 °C 1003.8 hPa NNE 18.0 km/h 3.7 km/h 58% 1.3 mm
17:50 14.5 °C 6.6 °C 1003.6 hPa NNE 3.2 km/h 4.7 km/h 59% 1.3 mm CLR
17:55 14.6 °C 5.4 °C 1003.6 hPa SSW 3.2 km/h 11.1 km/h 54% 1.3 mm CLR
18:00 14.8 °C 6.1 °C 1003.6 hPa NW 3.2 km/h 11.3 km/h 56% 0.0 mm
18:05 14.9 °C 6.2 °C 1003.8 hPa NW 4.7 km/h 18.5 km/h 56% 1.3 mm CLR
18:10 15.1 °C 5.3 °C 1003.8 hPa NNW 9.5 km/h 24.1 km/h 52% 1.0 mm CLR
18:15 15.2 °C 5.4 °C 1003.8 hPa NNW 9.5 km/h 18.5 km/h 52% 1.0 mm CLR
18:20 15.2 °C 5.7 °C 1003.9 hPa NNW 12.2 km/h 13.0 km/h 53% 0.8 mm CLR
18:25 15.3 °C 5.5 °C 1003.9 hPa NNW 12.2 km/h 18.5 km/h 52% 0.5 mm CLR
18:30 15.2 °C 5.7 °C 1003.9 hPa WNW 8.4 km/h 16.7 km/h 53% 0.3 mm CLR
18:35 15.2 °C 5.4 °C 1004.3 hPa NNW 8.4 km/h 7.4 km/h 52% 0.0 mm CLR
18:40 15.2 °C 5.1 °C 1004.3 hPa NNW 7.6 km/h 9.3 km/h 51% 0.0 mm CLR
18:45 15.1 °C 5.1 °C 1004.3 hPa NNW 7.6 km/h 16.7 km/h 51% 0.0 mm CLR
18:50 15.0 °C 4.7 °C 1004.2 hPa NNW 7.6 km/h 9.3 km/h 50% 0.0 mm CLR
18:55 14.9 °C 4.6 °C 1004.2 hPa ENE 7.6 km/h 7.4 km/h 50% 0.0 mm CLR
19:00 14.9 °C 4.8 °C 1004.2 hPa NE 3.2 km/h 8.0 km/h 51% 0.0 mm CLR
19:05 14.9 °C 4.8 °C 1004.5 hPa ESE 4.7 km/h 7.4 km/h 51% 0.0 mm CLR
19:10 14.9 °C 5.4 °C 1004.5 hPa ESE 3.9 km/h 7.4 km/h 53% 0.0 mm CLR
19:15 14.9 °C 5.7 °C 1004.5 hPa East 3.9 km/h 13.0 km/h 54% 0.0 mm CLR
19:20 14.8 °C 6.6 °C 1004.4 hPa ESE 6.4 km/h 11.1 km/h 58% 0.0 mm CLR
19:25 14.7 °C 7.3 °C 1004.4 hPa ESE 6.4 km/h 7.4 km/h 61% 0.0 mm CLR
19:30 14.7 °C 7.3 °C 1004.4 hPa ESE 5.0 km/h 5.6 km/h 61% 0.0 mm CLR
19:35 14.6 °C 6.2 °C 1004.7 hPa ESE 5.0 km/h 5.6 km/h 57% 0.0 mm CLR
19:40 14.6 °C 6.9 °C 1004.7 hPa SE 3.2 km/h 7.4 km/h 60% 0.0 mm CLR
19:45 14.6 °C 7.6 °C 1004.7 hPa SE 3.2 km/h 5.6 km/h 63% 0.0 mm CLR
19:50 14.7 °C 7.9 °C 1004.7 hPa SE 3.9 km/h 4.7 km/h 64% 0.0 mm CLR
19:55 14.6 °C 7.4 °C 1004.7 hPa SE 3.9 km/h 6.4 km/h 62% 0.0 mm CLR
20:00 14.6 °C 7.6 °C 1004.7 hPa SE 3.2 km/h 8.0 km/h 63% 0.0 mm CLR
20:05 14.4 °C 7.4 °C 1004.9 hPa WSW 2.9 km/h 7.4 km/h 63% 0.0 mm CLR
20:10 14.4 °C 7.4 °C 1004.9 hPa WSW 3.9 km/h 5.6 km/h 63% 0.0 mm CLR
20:15 14.4 °C 6.9 °C 1004.9 hPa WNW 3.9 km/h 7.4 km/h 61% 0.0 mm CLR
20:20 14.4 °C 6.9 °C 1004.8 hPa WNW 3.2 km/h 7.4 km/h 61% 0.0 mm CLR
20:25 14.3 °C 6.2 °C 1004.8 hPa WSW 3.2 km/h 7.4 km/h 58% 0.0 mm CLR
20:30 14.3 °C 6.4 °C 1004.8 hPa SSW 5.0 km/h 7.4 km/h 59% 0.0 mm CLR
20:35 14.4 °C 7.4 °C 1004.9 hPa SSE 5.0 km/h 5.8 km/h 63% 0.0 mm CLR
20:40 14.3 °C 7.8 °C 1004.9 hPa SW 4.7 km/h 8.7 km/h 65% 0.0 mm CLR
20:45 14.2 °C 6.8 °C 1004.9 hPa SSE 4.7 km/h 7.4 km/h 61% 0.0 mm CLR
20:50 14.2 °C 7.3 °C 1005.2 hPa SSE 5.0 km/h 9.3 km/h 63% 0.0 mm CLR
20:55 14.1 °C 5.9 °C 1005.2 hPa SSW 5.0 km/h 13.0 km/h 58% 0.0 mm CLR
21:00 14.1 °C 5.9 °C 1005.2 hPa SSW 8.0 km/h 17.7 km/h 58% 0.0 mm CLR
21:05 13.9 °C 6.0 °C 1005.2 hPa WSW 7.6 km/h 11.1 km/h 59% 0.0 mm CLR
21:10 13.9 °C 5.0 °C 1005.2 hPa SSW 7.6 km/h 13.0 km/h 55% 0.0 mm CLR
21:15 14.0 °C 4.8 °C 1005.2 hPa SW 7.6 km/h 11.1 km/h 54% 0.0 mm CLR
21:20 14.1 °C 3.6 °C 1005.5 hPa SW 8.4 km/h 14.8 km/h 49% 0.0 mm CLR
21:25 14.2 °C 3.3 °C 1005.5 hPa West 8.4 km/h 15.6 km/h 48% 0.0 mm CLR
21:30 14.2 °C 3.3 °C 1005.5 hPa WNW 10.0 km/h 24.1 km/h 48% 0.0 mm CLR
21:35 14.1 °C 3.6 °C 1005.7 hPa WSW 10.0 km/h 22.2 km/h 49% 0.0 mm CLR
21:40 14.0 °C 3.4 °C 1005.7 hPa WSW 12.2 km/h 13.0 km/h 49% 0.0 mm CLR
21:45 13.9 °C 3.6 °C 1005.7 hPa WSW 12.2 km/h 13.0 km/h 50% 0.0 mm CLR
21:50 13.9 °C 3.3 °C 1005.8 hPa SW 9.5 km/h 31.5 km/h 49% 0.0 mm CLR
21:55 13.8 °C 3.3 °C 1005.8 hPa West 9.5 km/h 16.7 km/h 49% 0.0 mm CLR
22:00 13.8 °C 3.3 °C 1005.8 hPa WSW 12.9 km/h 22.5 km/h 49% 0.0 mm CLR
22:05 13.7 °C 3.2 °C 1005.7 hPa WSW 13.0 km/h 20.4 km/h 49% 0.0 mm CLR
22:10 13.7 °C 3.2 °C 1005.7 hPa WSW 13.0 km/h 14.8 km/h 49% 0.0 mm CLR
22:15 13.7 °C 3.4 °C 1005.7 hPa SSW 13.0 km/h 16.7 km/h 50% 0.0 mm CLR
22:20 13.6 °C 3.7 °C 1006.0 hPa WSW 10.3 km/h 14.8 km/h 51% 0.0 mm CLR
22:25 13.5 °C 3.8 °C 1006.0 hPa West 10.3 km/h 18.5 km/h 52% 0.0 mm CLR
22:30 13.5 °C 3.8 °C 1006.0 hPa West 9.5 km/h 14.8 km/h 52% 0.0 mm CLR
22:35 13.4 °C 4.0 °C 1006.3 hPa West 9.5 km/h 16.7 km/h 53% 0.0 mm CLR
22:40 13.4 °C 4.0 °C 1006.3 hPa SW 8.7 km/h 13.0 km/h 53% 0.0 mm CLR
22:45 13.3 °C 3.9 °C 1006.3 hPa SW 8.7 km/h 13.0 km/h 53% 0.0 mm CLR
22:50 13.3 °C 3.7 °C 1006.6 hPa SW 10.0 km/h 18.5 km/h 52% 0.0 mm CLR
22:55 13.3 °C 3.7 °C 1006.6 hPa SW 10.0 km/h 11.1 km/h 52% 0.0 mm CLR
23:00 13.3 °C 3.4 °C 1006.6 hPa WSW 9.7 km/h 16.1 km/h 51% 0.0 mm CLR
23:05 13.3 °C 3.1 °C 1006.5 hPa West 8.7 km/h 15.6 km/h 50% 0.0 mm CLR
23:10 13.3 °C 3.1 °C 1006.5 hPa SW 8.7 km/h 16.1 km/h 50% 0.0 mm CLR
23:15 13.3 °C 3.4 °C 1006.5 hPa SW 8.7 km/h 14.8 km/h 51% 0.0 mm CLR
23:20 13.2 °C 3.6 °C 1006.4 hPa SW 10.3 km/h 16.7 km/h 52% 0.0 mm CLR
23:25 13.2 °C 3.6 °C 1006.4 hPa SSW 10.3 km/h 14.8 km/h 52% 0.0 mm CLR
23:30 13.1 °C 3.7 °C 1006.4 hPa SW 10.3 km/h 13.0 km/h 53% 0.0 mm CLR
23:35 13.1 °C 3.7 °C 1006.4 hPa SSW 10.3 km/h 14.8 km/h 53% 0.0 mm CLR
23:40 13.0 °C 3.9 °C 1006.4 hPa South 10.0 km/h 13.0 km/h 54% 0.0 mm CLR
23:45 12.9 °C 3.8 °C 1006.4 hPa South 10.0 km/h 14.8 km/h 54% 0.0 mm CLR
23:50 12.9 °C 3.8 °C 1006.4 hPa SSW 10.0 km/h 14.8 km/h 54% 0.0 mm CLR
23:55 12.9 °C 3.6 °C 1006.4 hPa SSW 10.0 km/h 20.4 km/h 53% 0.0 mm CLR
Murcia-Puente Tocinos, España
Compliments of Weather Underground - 2.75 mb

La estación de MeteoMurcia.com, publica sus datos en los siguientes proyectos:

Weather Underground PWS IMURCIAP2 Meteoclimatic www.awekas.at

W3Counter
Web Analytics